sensor_id;sensor_type;location;lat;lon;timestamp;temperature;humidity
71291;DHT22;59073;51.994;4.448;2023-04-01T00:01:18;10.50;88.57
71291;DHT22;59073;51.994;4.448;2023-04-01T00:03:44;10.49;88.64
71291;DHT22;59073;51.994;4.448;2023-04-01T00:06:13;10.48;88.61
71291;DHT22;59073;51.994;4.448;2023-04-01T00:08:39;10.46;88.60
71291;DHT22;59073;51.994;4.448;2023-04-01T00:11:05;10.46;88.77
71291;DHT22;59073;51.994;4.448;2023-04-01T00:13:30;10.44;88.52
71291;DHT22;59073;51.994;4.448;2023-04-01T00:15:56;10.41;88.73
71291;DHT22;59073;51.994;4.448;2023-04-01T00:18:22;10.37;88.80
71291;DHT22;59073;51.994;4.448;2023-04-01T00:20:49;10.31;89.01
71291;DHT22;59073;51.994;4.448;2023-04-01T00:23:16;10.31;89.03
71291;DHT22;59073;51.994;4.448;2023-04-01T00:25:42;10.31;89.09
71291;DHT22;59073;51.994;4.448;2023-04-01T00:28:08;10.32;89.11
71291;DHT22;59073;51.994;4.448;2023-04-01T00:30:35;10.20;89.36
71291;DHT22;59073;51.994;4.448;2023-04-01T00:33:01;10.27;89.43
71291;DHT22;59073;51.994;4.448;2023-04-01T00:35:26;10.22;89.18
71291;DHT22;59073;51.994;4.448;2023-04-01T00:37:51;10.24;89.22
71291;DHT22;59073;51.994;4.448;2023-04-01T00:42:51;10.17;89.43
71291;DHT22;59073;51.994;4.448;2023-04-01T00:45:24;10.18;89.54
71291;DHT22;59073;51.994;4.448;2023-04-01T00:47:50;10.12;89.40
71291;DHT22;59073;51.994;4.448;2023-04-01T00:50:15;10.17;89.54
71291;DHT22;59073;51.994;4.448;2023-04-01T00:52:42;10.15;89.36
71291;DHT22;59073;51.994;4.448;2023-04-01T00:55:11;10.15;89.43
71291;DHT22;59073;51.994;4.448;2023-04-01T00:57:42;10.08;89.49
71291;DHT22;59073;51.994;4.448;2023-04-01T01:00:11;10.12;89.60
71291;DHT22;59073;51.994;4.448;2023-04-01T01:02:41;10.05;89.64
71291;DHT22;59073;51.994;4.448;2023-04-01T01:05:11;10.08;89.73
71291;DHT22;59073;51.994;4.448;2023-04-01T01:08:06;10.11;89.61
71291;DHT22;59073;51.994;4.448;2023-04-01T01:10:38;10.08;89.59
71291;DHT22;59073;51.994;4.448;2023-04-01T01:13:26;10.11;89.56
71291;DHT22;59073;51.994;4.448;2023-04-01T01:16:07;10.15;89.36
71291;DHT22;59073;51.994;4.448;2023-04-01T01:18:45;10.22;89.28
71291;DHT22;59073;51.994;4.448;2023-04-01T01:21:47;10.18;89.24
71291;DHT22;59073;51.994;4.448;2023-04-01T01:24:36;10.17;89.30
71291;DHT22;59073;51.994;4.448;2023-04-01T01:27:10;10.15;89.36
71291;DHT22;59073;51.994;4.448;2023-04-01T01:33:01;10.18;89.23
71291;DHT22;59073;51.994;4.448;2023-04-01T01:35:37;10.14;89.27
71291;DHT22;59073;51.994;4.448;2023-04-01T01:38:08;10.10;89.39
71291;DHT22;59073;51.994;4.448;2023-04-01T01:40:36;10.08;89.55
71291;DHT22;59073;51.994;4.448;2023-04-01T01:43:08;10.05;89.61
71291;DHT22;59073;51.994;4.448;2023-04-01T01:45:40;10.08;89.52
71291;DHT22;59073;51.994;4.448;2023-04-01T01:48:09;10.12;89.53
71291;DHT22;59073;51.994;4.448;2023-04-01T01:50:36;10.11;89.47
71291;DHT22;59073;51.994;4.448;2023-04-01T01:53:09;10.18;89.46
71291;DHT22;59073;51.994;4.448;2023-04-01T01:55:41;10.17;89.33
71291;DHT22;59073;51.994;4.448;2023-04-01T02:01:03;10.20;89.30
71291;DHT22;59073;51.994;4.448;2023-04-01T02:03:34;10.21;89.16
71291;DHT22;59073;51.994;4.448;2023-04-01T02:06:03;10.22;89.11
71291;DHT22;59073;51.994;4.448;2023-04-01T02:08:41;10.14;89.46
71291;DHT22;59073;51.994;4.448;2023-04-01T02:11:11;10.11;89.38
71291;DHT22;59073;51.994;4.448;2023-04-01T02:16:11;10.15;89.42
71291;DHT22;59073;51.994;4.448;2023-04-01T02:18:39;10.15;89.47
71291;DHT22;59073;51.994;4.448;2023-04-01T02:21:07;10.08;89.58
71291;DHT22;59073;51.994;4.448;2023-04-01T02:23:36;10.11;89.50
71291;DHT22;59073;51.994;4.448;2023-04-01T02:26:06;10.21;89.23
71291;DHT22;59073;51.994;4.448;2023-04-01T02:28:34;10.28;89.23
71291;DHT22;59073;51.994;4.448;2023-04-01T02:31:03;10.20;89.24
71291;DHT22;59073;51.994;4.448;2023-04-01T02:33:30;10.27;89.14
71291;DHT22;59073;51.994;4.448;2023-04-01T02:35:56;10.28;89.09
71291;DHT22;59073;51.994;4.448;2023-04-01T02:38:22;10.29;89.10
71291;DHT22;59073;51.994;4.448;2023-04-01T02:40:51;10.24;89.20
71291;DHT22;59073;51.994;4.448;2023-04-01T02:43:21;10.31;89.17
71291;DHT22;59073;51.994;4.448;2023-04-01T02:45:46;10.32;88.97
71291;DHT22;59073;51.994;4.448;2023-04-01T02:48:11;10.37;88.80
71291;DHT22;59073;51.994;4.448;2023-04-01T02:50:39;10.29;88.93
71291;DHT22;59073;51.994;4.448;2023-04-01T02:53:05;10.35;89.08
71291;DHT22;59073;51.994;4.448;2023-04-01T02:55:32;10.37;88.98
71291;DHT22;59073;51.994;4.448;2023-04-01T02:57:57;10.35;89.03
71291;DHT22;59073;51.994;4.448;2023-04-01T03:00:23;10.28;89.39
71291;DHT22;59073;51.994;4.448;2023-04-01T03:02:49;10.32;89.45
71291;DHT22;59073;51.994;4.448;2023-04-01T03:05:15;10.34;89.40
71291;DHT22;59073;51.994;4.448;2023-04-01T03:07:40;10.41;89.29
71291;DHT22;59073;51.994;4.448;2023-04-01T03:10:07;10.39;89.12
71291;DHT22;59073;51.994;4.448;2023-04-01T03:12:33;10.37;89.17
71291;DHT22;59073;51.994;4.448;2023-04-01T03:14:58;10.37;89.33
71291;DHT22;59073;51.994;4.448;2023-04-01T03:17:24;10.38;89.52
71291;DHT22;59073;51.994;4.448;2023-04-01T03:19:49;10.38;89.98
71291;DHT22;59073;51.994;4.448;2023-04-01T03:22:14;10.27;90.24
71291;DHT22;59073;51.994;4.448;2023-04-01T03:24:40;10.39;90.05
71291;DHT22;59073;51.994;4.448;2023-04-01T03:27:06;10.41;89.82
71291;DHT22;59073;51.994;4.448;2023-04-01T03:29:31;10.41;89.74
71291;DHT22;59073;51.994;4.448;2023-04-01T03:31:56;10.35;90.00
71291;DHT22;59073;51.994;4.448;2023-04-01T03:34:24;10.32;90.08
71291;DHT22;59073;51.994;4.448;2023-04-01T03:36:49;10.29;90.10
71291;DHT22;59073;51.994;4.448;2023-04-01T03:39:16;10.21;90.06
71291;DHT22;59073;51.994;4.448;2023-04-01T03:41:44;10.24;90.26
71291;DHT22;59073;51.994;4.448;2023-04-01T03:44:10;10.18;90.35
71291;DHT22;59073;51.994;4.448;2023-04-01T03:46:35;10.11;90.68
71291;DHT22;59073;51.994;4.448;2023-04-01T03:49:02;10.18;90.71
71291;DHT22;59073;51.994;4.448;2023-04-01T03:51:27;10.15;90.82
71291;DHT22;59073;51.994;4.448;2023-04-01T03:53:53;10.10;91.09
71291;DHT22;59073;51.994;4.448;2023-04-01T03:56:18;10.10;91.19
71291;DHT22;59073;51.994;4.448;2023-04-01T03:58:44;10.01;91.44
71291;DHT22;59073;51.994;4.448;2023-04-01T04:01:18;10.02;91.38
71291;DHT22;59073;51.994;4.448;2023-04-01T04:03:45;9.95;91.73
71291;DHT22;59073;51.994;4.448;2023-04-01T04:06:12;10.00;91.74
71291;DHT22;59073;51.994;4.448;2023-04-01T04:08:38;10.07;91.57
71291;DHT22;59073;51.994;4.448;2023-04-01T04:11:04;10.00;91.60
71291;DHT22;59073;51.994;4.448;2023-04-01T04:13:30;10.01;91.70
71291;DHT22;59073;51.994;4.448;2023-04-01T04:15:55;9.95;91.77
71291;DHT22;59073;51.994;4.448;2023-04-01T04:18:21;9.98;91.90
71291;DHT22;59073;51.994;4.448;2023-04-01T04:20:47;9.97;91.87
71291;DHT22;59073;51.994;4.448;2023-04-01T04:23:17;9.98;91.64
71291;DHT22;59073;51.994;4.448;2023-04-01T04:26:00;9.98;91.56
71291;DHT22;59073;51.994;4.448;2023-04-01T04:28:27;10.05;91.39
71291;DHT22;59073;51.994;4.448;2023-04-01T04:30:53;10.04;91.07
71291;DHT22;59073;51.994;4.448;2023-04-01T04:33:19;9.97;90.91
71291;DHT22;59073;51.994;4.448;2023-04-01T04:35:44;10.01;91.19
71291;DHT22;59073;51.994;4.448;2023-04-01T04:38:10;9.98;90.96
71291;DHT22;59073;51.994;4.448;2023-04-01T04:40:37;9.94;90.96
71291;DHT22;59073;51.994;4.448;2023-04-01T04:43:03;9.94;90.99
71291;DHT22;59073;51.994;4.448;2023-04-01T04:45:28;9.90;90.95
71291;DHT22;59073;51.994;4.448;2023-04-01T04:47:53;9.95;90.87
71291;DHT22;59073;51.994;4.448;2023-04-01T04:50:19;9.95;90.81
71291;DHT22;59073;51.994;4.448;2023-04-01T04:52:45;9.95;90.68
71291;DHT22;59073;51.994;4.448;2023-04-01T04:55:10;9.91;90.61
71291;DHT22;59073;51.994;4.448;2023-04-01T04:57:36;9.88;90.70
71291;DHT22;59073;51.994;4.448;2023-04-01T05:00:02;9.84;90.90
71291;DHT22;59073;51.994;4.448;2023-04-01T05:02:27;9.83;90.98
71291;DHT22;59073;51.994;4.448;2023-04-01T05:04:53;9.84;90.93
71291;DHT22;59073;51.994;4.448;2023-04-01T05:07:19;9.83;90.83
71291;DHT22;59073;51.994;4.448;2023-04-01T05:09:44;9.84;90.98
71291;DHT22;59073;51.994;4.448;2023-04-01T05:12:10;9.80;91.15
71291;DHT22;59073;51.994;4.448;2023-04-01T05:14:38;9.83;91.17
71291;DHT22;59073;51.994;4.448;2023-04-01T05:17:04;9.87;91.00
71291;DHT22;59073;51.994;4.448;2023-04-01T05:19:29;9.84;91.13
71291;DHT22;59073;51.994;4.448;2023-04-01T05:21:55;9.83;90.98
71291;DHT22;59073;51.994;4.448;2023-04-01T05:24:20;9.83;90.93
71291;DHT22;59073;51.994;4.448;2023-04-01T05:26:45;9.83;91.04
71291;DHT22;59073;51.994;4.448;2023-04-01T05:29:11;9.81;90.98
71291;DHT22;59073;51.994;4.448;2023-04-01T05:31:36;9.84;90.93
71291;DHT22;59073;51.994;4.448;2023-04-01T05:34:02;9.86;90.92
71291;DHT22;59073;51.994;4.448;2023-04-01T05:36:27;9.87;90.91
71291;DHT22;59073;51.994;4.448;2023-04-01T05:38:55;9.83;90.59
71291;DHT22;59073;51.994;4.448;2023-04-01T05:41:21;9.80;90.95
71291;DHT22;59073;51.994;4.448;2023-04-01T05:43:47;9.81;90.85
71291;DHT22;59073;51.994;4.448;2023-04-01T05:46:12;9.79;90.97
71291;DHT22;59073;51.994;4.448;2023-04-01T05:48:38;9.83;90.85
71291;DHT22;59073;51.994;4.448;2023-04-01T05:51:04;9.84;90.60
71291;DHT22;59073;51.994;4.448;2023-04-01T05:53:30;9.77;90.66
71291;DHT22;59073;51.994;4.448;2023-04-01T05:55:55;9.76;90.80
71291;DHT22;59073;51.994;4.448;2023-04-01T05:58:20;9.70;90.77
71291;DHT22;59073;51.994;4.448;2023-04-01T06:00:46;9.66;90.95
71291;DHT22;59073;51.994;4.448;2023-04-01T06:03:11;9.70;91.08
71291;DHT22;59073;51.994;4.448;2023-04-01T06:05:40;9.64;90.85
71291;DHT22;59073;51.994;4.448;2023-04-01T06:08:12;9.63;91.23
71291;DHT22;59073;51.994;4.448;2023-04-01T06:16:33;9.74;91.15
71291;DHT22;59073;51.994;4.448;2023-04-01T06:22:08;9.66;91.00
71291;DHT22;59073;51.994;4.448;2023-04-01T06:30:43;9.66;90.93
71291;DHT22;59073;51.994;4.448;2023-04-01T06:33:34;9.70;90.78
71291;DHT22;59073;51.994;4.448;2023-04-01T06:42:26;9.63;90.47
71291;DHT22;59073;51.994;4.448;2023-04-01T06:45:19;9.67;90.62
71291;DHT22;59073;51.994;4.448;2023-04-01T06:48:15;9.71;90.62
71291;DHT22;59073;51.994;4.448;2023-04-01T06:53:39;9.77;90.77
71291;DHT22;59073;51.994;4.448;2023-04-01T06:56:17;9.86;90.15
71291;DHT22;59073;51.994;4.448;2023-04-01T06:58:49;9.80;90.31
71291;DHT22;59073;51.994;4.448;2023-04-01T07:01:25;9.87;90.38
71291;DHT22;59073;51.994;4.448;2023-04-01T07:04:10;9.79;90.06
71291;DHT22;59073;51.994;4.448;2023-04-01T07:06:47;9.86;90.22
71291;DHT22;59073;51.994;4.448;2023-04-01T07:09:21;9.76;90.34
71291;DHT22;59073;51.994;4.448;2023-04-01T07:11:48;9.80;90.36
71291;DHT22;59073;51.994;4.448;2023-04-01T07:14:22;9.81;90.60
71291;DHT22;59073;51.994;4.448;2023-04-01T07:17:12;9.90;90.74
71291;DHT22;59073;51.994;4.448;2023-04-01T07:19:42;9.84;90.36
71291;DHT22;59073;51.994;4.448;2023-04-01T07:22:29;9.81;90.36
71291;DHT22;59073;51.994;4.448;2023-04-01T07:25:03;9.93;90.71
71291;DHT22;59073;51.994;4.448;2023-04-01T07:27:30;9.97;90.40
71291;DHT22;59073;51.994;4.448;2023-04-01T07:29:56;10.01;89.82
71291;DHT22;59073;51.994;4.448;2023-04-01T07:32:38;10.02;90.37
71291;DHT22;59073;51.994;4.448;2023-04-01T07:38:46;9.88;90.12
71291;DHT22;59073;51.994;4.448;2023-04-01T07:41:34;9.91;90.15
71291;DHT22;59073;51.994;4.448;2023-04-01T07:50:46;10.01;90.17
71291;DHT22;59073;51.994;4.448;2023-04-01T07:56:36;9.83;89.91
71291;DHT22;59073;51.994;4.448;2023-04-01T07:59:18;9.86;90.15
71291;DHT22;59073;51.994;4.448;2023-04-01T08:02:10;9.94;90.26
71291;DHT22;59073;51.994;4.448;2023-04-01T08:13:30;9.94;90.17
71291;DHT22;59073;51.994;4.448;2023-04-01T08:16:21;9.94;90.10
71291;DHT22;59073;51.994;4.448;2023-04-01T08:21:49;9.91;90.11
71291;DHT22;59073;51.994;4.448;2023-04-01T08:27:03;9.93;89.86
71291;DHT22;59073;51.994;4.448;2023-04-01T08:29:48;9.91;90.07
71291;DHT22;59073;51.994;4.448;2023-04-01T08:32:26;9.87;90.38
71291;DHT22;59073;51.994;4.448;2023-04-01T08:35:32;10.08;90.44
71291;DHT22;59073;51.994;4.448;2023-04-01T08:38:12;10.10;89.89
71291;DHT22;59073;51.994;4.448;2023-04-01T08:40:58;10.17;89.94
71291;DHT22;59073;51.994;4.448;2023-04-01T08:43:42;10.15;89.47
71291;DHT22;59073;51.994;4.448;2023-04-01T08:46:35;10.21;89.83
71291;DHT22;59073;51.994;4.448;2023-04-01T08:49:42;10.24;89.75
71291;DHT22;59073;51.994;4.448;2023-04-01T08:52:33;10.31;89.59
71291;DHT22;59073;51.994;4.448;2023-04-01T08:55:31;10.27;89.12
71291;DHT22;59073;51.994;4.448;2023-04-01T09:03:58;10.15;89.71
71291;DHT22;59073;51.994;4.448;2023-04-01T09:09:48;10.07;89.40
71291;DHT22;59073;51.994;4.448;2023-04-01T09:15:37;10.07;89.86
71291;DHT22;59073;51.994;4.448;2023-04-01T09:24:20;10.00;89.87
71291;DHT22;59073;51.994;4.448;2023-04-01T09:27:03;10.12;90.09
71291;DHT22;59073;51.994;4.448;2023-04-01T09:35:49;10.20;89.29
71291;DHT22;59073;51.994;4.448;2023-04-01T09:38:28;10.17;89.78
71291;DHT22;59073;51.994;4.448;2023-04-01T09:40:56;10.10;89.93
71291;DHT22;59073;51.994;4.448;2023-04-01T09:49:11;10.12;90.10
71291;DHT22;59073;51.994;4.448;2023-04-01T09:52:14;10.29;89.84
71291;DHT22;59073;51.994;4.448;2023-04-01T10:00:29;10.35;89.50
71291;DHT22;59073;51.994;4.448;2023-04-01T10:03:23;10.48;89.91
71291;DHT22;59073;51.994;4.448;2023-04-01T10:05:58;10.58;89.61
71291;DHT22;59073;51.994;4.448;2023-04-01T10:26:19;10.46;89.29
71291;DHT22;59073;51.994;4.448;2023-04-01T10:29:02;10.55;89.25
71291;DHT22;59073;51.994;4.448;2023-04-01T10:37:28;10.56;88.88
71291;DHT22;59073;51.994;4.448;2023-04-01T10:40:21;10.50;89.25
71291;DHT22;59073;51.994;4.448;2023-04-01T10:46:07;10.72;88.85
71291;DHT22;59073;51.994;4.448;2023-04-01T10:48:43;10.65;89.40
71291;DHT22;59073;51.994;4.448;2023-04-01T10:54:47;10.75;89.32
71291;DHT22;59073;51.994;4.448;2023-04-01T11:16:43;10.42;90.08
71291;DHT22;59073;51.994;4.448;2023-04-01T11:19:42;10.28;89.41
71291;DHT22;59073;51.994;4.448;2023-04-01T11:28:24;10.42;90.21
71291;DHT22;59073;51.994;4.448;2023-04-01T11:33:43;10.39;89.93
71291;DHT22;59073;51.994;4.448;2023-04-01T11:41:41;10.44;89.34
71291;DHT22;59073;51.994;4.448;2023-04-01T11:47:18;10.58;89.17
71291;DHT22;59073;51.994;4.448;2023-04-01T11:50:26;10.96;89.84
71291;DHT22;59073;51.994;4.448;2023-04-01T11:53:18;11.09;88.78
71291;DHT22;59073;51.994;4.448;2023-04-01T11:56:14;11.10;87.43
71291;DHT22;59073;51.994;4.448;2023-04-01T11:59:08;11.35;88.41
71291;DHT22;59073;51.994;4.448;2023-04-01T12:13:34;10.63;87.77
71291;DHT22;59073;51.994;4.448;2023-04-01T12:16:15;10.68;88.52
71291;DHT22;59073;51.994;4.448;2023-04-01T12:18:59;10.76;88.31
71291;DHT22;59073;51.994;4.448;2023-04-01T12:21:37;10.77;89.03
71291;DHT22;59073;51.994;4.448;2023-04-01T12:35:26;10.95;87.54
71291;DHT22;59073;51.994;4.448;2023-04-01T12:38:16;10.92;88.56
71291;DHT22;59073;51.994;4.448;2023-04-01T12:41:03;10.95;88.60
71291;DHT22;59073;51.994;4.448;2023-04-01T12:47:03;10.86;88.28
71291;DHT22;59073;51.994;4.448;2023-04-01T12:49:36;10.89;88.55
71291;DHT22;59073;51.994;4.448;2023-04-01T12:52:11;10.90;88.01
71291;DHT22;59073;51.994;4.448;2023-04-01T12:57:23;10.88;87.50
71291;DHT22;59073;51.994;4.448;2023-04-01T13:02:50;10.96;87.91
71291;DHT22;59073;51.994;4.448;2023-04-01T13:05:20;10.93;88.31
71291;DHT22;59073;51.994;4.448;2023-04-01T13:08:02;10.96;88.50
71291;DHT22;59073;51.994;4.448;2023-04-01T13:13:43;11.04;88.49
71291;DHT22;59073;51.994;4.448;2023-04-01T13:16:27;10.89;88.14
71291;DHT22;59073;51.994;4.448;2023-04-01T13:19:57;10.83;88.75
71291;DHT22;59073;51.994;4.448;2023-04-01T13:22:20;10.83;88.90
71291;DHT22;59073;51.994;4.448;2023-04-01T13:27:45;10.90;88.08
71291;DHT22;59073;51.994;4.448;2023-04-01T13:32:50;11.01;88.09
71291;DHT22;59073;51.994;4.448;2023-04-01T13:38:13;11.09;87.35
71291;DHT22;59073;51.994;4.448;2023-04-01T13:41:12;11.09;87.87
71291;DHT22;59073;51.994;4.448;2023-04-01T13:43:50;10.96;87.57
71291;DHT22;59073;51.994;4.448;2023-04-01T13:46:48;11.00;88.21
71291;DHT22;59073;51.994;4.448;2023-04-01T13:58:07;10.79;87.62
71291;DHT22;59073;51.994;4.448;2023-04-01T14:01:29;10.76;87.47
71291;DHT22;59073;51.994;4.448;2023-04-01T14:09:37;11.09;87.60
71291;DHT22;59073;51.994;4.448;2023-04-01T14:18:19;11.27;86.85
71291;DHT22;59073;51.994;4.448;2023-04-01T14:43:09;11.42;86.27
71291;DHT22;59073;51.994;4.448;2023-04-01T14:48:48;11.52;86.25
71291;DHT22;59073;51.994;4.448;2023-04-01T14:54:15;11.57;86.48
71291;DHT22;59073;51.994;4.448;2023-04-01T14:59:27;11.30;87.70
71291;DHT22;59073;51.994;4.448;2023-04-01T15:02:37;11.17;88.54
71291;DHT22;59073;51.994;4.448;2023-04-01T15:13:56;11.26;90.00
71291;DHT22;59073;51.994;4.448;2023-04-01T15:19:16;11.00;89.65
71291;DHT22;59073;51.994;4.448;2023-04-01T15:27:44;10.88;89.99
71291;DHT22;59073;51.994;4.448;2023-04-01T15:38:40;10.79;91.09
71291;DHT22;59073;51.994;4.448;2023-04-01T15:41:27;10.75;89.99
71291;DHT22;59073;51.994;4.448;2023-04-01T15:43:53;10.76;90.22
71291;DHT22;59073;51.994;4.448;2023-04-01T15:47:16;10.89;90.65
71291;DHT22;59073;51.994;4.448;2023-04-01T15:49:43;10.90;89.77
71291;DHT22;59073;51.994;4.448;2023-04-01T15:57:40;10.83;90.45
71291;DHT22;59073;51.994;4.448;2023-04-01T16:05:50;10.79;90.10
71291;DHT22;59073;51.994;4.448;2023-04-01T16:08:40;10.88;90.01
71291;DHT22;59073;51.994;4.448;2023-04-01T16:14:28;11.04;90.26
71291;DHT22;59073;51.994;4.448;2023-04-01T16:17:12;11.10;89.79
71291;DHT22;59073;51.994;4.448;2023-04-01T16:19:55;11.30;89.53
71291;DHT22;59073;51.994;4.448;2023-04-01T16:22:38;11.17;88.82
71291;DHT22;59073;51.994;4.448;2023-04-01T16:25:45;11.09;89.46
71291;DHT22;59073;51.994;4.448;2023-04-01T16:28:40;10.99;89.83
71291;DHT22;59073;51.994;4.448;2023-04-01T16:31:23;11.01;89.55
71291;DHT22;59073;51.994;4.448;2023-04-01T16:34:06;11.01;89.24
71291;DHT22;59073;51.994;4.448;2023-04-01T16:36:54;11.13;89.10
71291;DHT22;59073;51.994;4.448;2023-04-01T16:39:37;11.03;88.76
71291;DHT22;59073;51.994;4.448;2023-04-01T16:47:51;10.95;89.07
71291;DHT22;59073;51.994;4.448;2023-04-01T16:50:24;11.01;89.14
71291;DHT22;59073;51.994;4.448;2023-04-01T16:58:18;10.99;89.51
71291;DHT22;59073;51.994;4.448;2023-04-01T17:01:02;10.90;89.16
71291;DHT22;59073;51.994;4.448;2023-04-01T17:03:34;10.72;89.30
71291;DHT22;59073;51.994;4.448;2023-04-01T17:06:12;10.75;89.46
71291;DHT22;59073;51.994;4.448;2023-04-01T17:08:53;10.73;89.21
71291;DHT22;59073;51.994;4.448;2023-04-01T17:20:00;10.66;88.63
71291;DHT22;59073;51.994;4.448;2023-04-01T17:22:44;10.83;88.67
71291;DHT22;59073;51.994;4.448;2023-04-01T17:25:38;10.65;87.87
71291;DHT22;59073;51.994;4.448;2023-04-01T17:37:52;10.63;87.89
71291;DHT22;59073;51.994;4.448;2023-04-01T17:43:27;10.46;87.76
71291;DHT22;59073;51.994;4.448;2023-04-01T17:45:58;10.63;87.73
71291;DHT22;59073;51.994;4.448;2023-04-01T17:49:05;10.49;87.40
71291;DHT22;59073;51.994;4.448;2023-04-01T17:51:58;10.45;87.62
71291;DHT22;59073;51.994;4.448;2023-04-01T17:54:37;10.37;87.39
71291;DHT22;59073;51.994;4.448;2023-04-01T17:59:39;10.42;87.54
71291;DHT22;59073;51.994;4.448;2023-04-01T18:02:23;10.35;87.49
71291;DHT22;59073;51.994;4.448;2023-04-01T18:05:14;10.32;87.53
71291;DHT22;59073;51.994;4.448;2023-04-01T18:08:07;10.32;87.68
71291;DHT22;59073;51.994;4.448;2023-04-01T18:11:05;10.24;87.69
71291;DHT22;59073;51.994;4.448;2023-04-01T18:16:20;10.22;87.57
71291;DHT22;59073;51.994;4.448;2023-04-01T18:21:45;10.32;87.21
71291;DHT22;59073;51.994;4.448;2023-04-01T18:24:36;10.32;87.30
71291;DHT22;59073;51.994;4.448;2023-04-01T18:27:17;10.17;87.84
71291;DHT22;59073;51.994;4.448;2023-04-01T18:29:55;10.11;88.07
71291;DHT22;59073;51.994;4.448;2023-04-01T18:32:36;10.21;87.94
71291;DHT22;59073;51.994;4.448;2023-04-01T18:35:27;10.34;87.53
71291;DHT22;59073;51.994;4.448;2023-04-01T18:40:44;10.31;87.47
71291;DHT22;59073;51.994;4.448;2023-04-01T18:43:39;10.41;87.36
71291;DHT22;59073;51.994;4.448;2023-04-01T18:46:19;10.32;88.04
71291;DHT22;59073;51.994;4.448;2023-04-01T18:51:43;10.17;87.82
71291;DHT22;59073;51.994;4.448;2023-04-01T18:56:48;9.97;87.92
71291;DHT22;59073;51.994;4.448;2023-04-01T19:06:57;10.01;87.46
71291;DHT22;59073;51.994;4.448;2023-04-01T19:09:44;10.05;87.09
71291;DHT22;59073;51.994;4.448;2023-04-01T19:12:30;9.98;87.15
71291;DHT22;59073;51.994;4.448;2023-04-01T19:15:20;10.08;86.91
71291;DHT22;59073;51.994;4.448;2023-04-01T19:21:01;9.95;87.03
71291;DHT22;59073;51.994;4.448;2023-04-01T19:26:36;9.91;86.42
71291;DHT22;59073;51.994;4.448;2023-04-01T19:29:58;9.84;86.29
71291;DHT22;59073;51.994;4.448;2023-04-01T19:37:40;9.71;86.60
71291;DHT22;59073;51.994;4.448;2023-04-01T19:43:18;9.69;86.10
71291;DHT22;59073;51.994;4.448;2023-04-01T19:46:05;9.69;86.38
71291;DHT22;59073;51.994;4.448;2023-04-01T19:59:44;9.70;86.16
71291;DHT22;59073;51.994;4.448;2023-04-01T20:02:33;9.67;86.11
71291;DHT22;59073;51.994;4.448;2023-04-01T20:05:26;9.63;86.36
71291;DHT22;59073;51.994;4.448;2023-04-01T20:08:07;9.60;86.14
71291;DHT22;59073;51.994;4.448;2023-04-01T20:16:03;9.54;86.08
71291;DHT22;59073;51.994;4.448;2023-04-01T20:18:39;9.39;86.21
71291;DHT22;59073;51.994;4.448;2023-04-01T20:24:23;9.47;86.13
71291;DHT22;59073;51.994;4.448;2023-04-01T20:29:47;9.35;85.54
71291;DHT22;59073;51.994;4.448;2023-04-01T20:35:32;9.44;85.49
71291;DHT22;59073;51.994;4.448;2023-04-01T20:38:39;9.36;85.51
71291;DHT22;59073;51.994;4.448;2023-04-01T20:41:23;9.51;85.44
71291;DHT22;59073;51.994;4.448;2023-04-01T20:44:10;9.51;85.63
71291;DHT22;59073;51.994;4.448;2023-04-01T20:47:14;9.54;85.13
71291;DHT22;59073;51.994;4.448;2023-04-01T20:53:12;9.40;85.32
71291;DHT22;59073;51.994;4.448;2023-04-01T21:01:15;9.28;85.84
71291;DHT22;59073;51.994;4.448;2023-04-01T21:03:56;9.20;85.25
71291;DHT22;59073;51.994;4.448;2023-04-01T21:06:39;9.19;85.19
71291;DHT22;59073;51.994;4.448;2023-04-01T21:12:27;9.15;83.64
71291;DHT22;59073;51.994;4.448;2023-04-01T21:15:35;9.23;84.29
71291;DHT22;59073;51.994;4.448;2023-04-01T21:26:12;9.05;84.35
71291;DHT22;59073;51.994;4.448;2023-04-01T21:28:50;8.81;84.36
71291;DHT22;59073;51.994;4.448;2023-04-01T21:31:42;8.82;84.41
71291;DHT22;59073;51.994;4.448;2023-04-01T21:34:31;8.92;83.97
71291;DHT22;59073;51.994;4.448;2023-04-01T22:01:04;8.48;83.86
71291;DHT22;59073;51.994;4.448;2023-04-01T22:03:33;8.48;83.72
71291;DHT22;59073;51.994;4.448;2023-04-01T22:08:47;8.65;83.17
71291;DHT22;59073;51.994;4.448;2023-04-01T22:11:44;8.58;83.15
71291;DHT22;59073;51.994;4.448;2023-04-01T22:19:55;8.50;83.35
71291;DHT22;59073;51.994;4.448;2023-04-01T22:25:35;8.34;83.70
71291;DHT22;59073;51.994;4.448;2023-04-01T22:28:07;8.32;83.50
71291;DHT22;59073;51.994;4.448;2023-04-01T22:31:07;8.32;83.54
71291;DHT22;59073;51.994;4.448;2023-04-01T22:42:14;8.23;83.25
71291;DHT22;59073;51.994;4.448;2023-04-01T22:48:02;8.39;83.68
71291;DHT22;59073;51.994;4.448;2023-04-01T22:56:15;8.16;83.95
71291;DHT22;59073;51.994;4.448;2023-04-01T22:58:49;8.30;84.03
71291;DHT22;59073;51.994;4.448;2023-04-01T23:01:23;8.37;83.97
71291;DHT22;59073;51.994;4.448;2023-04-01T23:03:51;8.39;83.41
71291;DHT22;59073;51.994;4.448;2023-04-01T23:06:27;8.29;83.55
71291;DHT22;59073;51.994;4.448;2023-04-01T23:09:19;8.26;83.67
71291;DHT22;59073;51.994;4.448;2023-04-01T23:11:55;8.12;83.75
71291;DHT22;59073;51.994;4.448;2023-04-01T23:20:22;8.07;83.62
71291;DHT22;59073;51.994;4.448;2023-04-01T23:23:11;8.17;83.62
71291;DHT22;59073;51.994;4.448;2023-04-01T23:28:39;8.19;83.37
71291;DHT22;59073;51.994;4.448;2023-04-01T23:33:55;8.14;82.97
71291;DHT22;59073;51.994;4.448;2023-04-01T23:36:21;8.06;83.27
71291;DHT22;59073;51.994;4.448;2023-04-01T23:38:49;8.16;83.54
71291;DHT22;59073;51.994;4.448;2023-04-01T23:41:41;8.05;83.35
71291;DHT22;59073;51.994;4.448;2023-04-01T23:44:12;8.03;84.07
71291;DHT22;59073;51.994;4.448;2023-04-01T23:46:40;8.02;84.73
71291;DHT22;59073;51.994;4.448;2023-04-01T23:52:14;7.85;85.07
71291;DHT22;59073;51.994;4.448;2023-04-01T23:54:52;7.79;84.59
71291;DHT22;59073;51.994;4.448;2023-04-01T23:57:23;7.86;84.62
